Terminal Aerodrome Forecast
Issued by NWS Lubbock, TX

Home | Current Version | Previous Version | Text Only | Print | Product List | Glossary On
Versions: 1 2 3 4 5 6 7 8 9 10 11 12 13
592
FTUS44 KLUB 252322
TAFLBB
TAF
KLBB 252322Z 2600/2624 04012G22KT P6SM VCTS SCT080CB BKN250
     FM260100 11010KT P6SM SCT080 BKN250=

USA.gov is the U.S. government's official web portal to all federal, state and local government web resources and services.